Terminal Aerodrome Forecast
Issued by NWS Topeka, KS

Home | Current Version | Previous Version | Text Only | Print | Product List | Glossary Off
Versions: 1 2 3 4 5 6 7 8 9 10 11 12 13 14 15 16 17

000
FTUS43 KTOP 291100
TAFTOP
TAF
KTOP 291120Z 2912/3012 33018G26KT P6SM OVC024
     FM291800 34017G25KT P6SM BKN035
     FM300000 35005KT P6SM SKC=

USA.gov is the U.S. government's official web portal to all federal, state and local government web resources and services.